createdAt,value
2023-01-07T00:00:38.873Z,101433.41
2023-01-07T00:03:08.744Z,101428.47
2023-01-07T00:05:38.573Z,101437.44
2023-01-07T00:08:08.360Z,101420.81
2023-01-07T00:10:40.819Z,101429.47
2023-01-07T00:13:10.665Z,101418.88
2023-01-07T00:15:40.505Z,101431.06
2023-01-07T00:18:10.420Z,101434.28
2023-01-07T00:20:40.163Z,101424.22
2023-01-07T00:23:10.044Z,101428.84
2023-01-07T00:25:42.404Z,101420.97
2023-01-07T00:28:12.194Z,101419.56
2023-01-07T00:30:42.005Z,101423.91
2023-01-07T00:33:14.557Z,101414.94
2023-01-07T00:35:45.015Z,101418.78
2023-01-07T00:38:15.031Z,101414.56
2023-01-07T00:40:47.465Z,101411.63
2023-01-07T00:43:17.315Z,101412.75
2023-01-07T00:45:47.107Z,101410.13
2023-01-07T00:48:18.617Z,101406.13
2023-01-07T00:50:51.464Z,101408.03
2023-01-07T00:53:21.610Z,101404.53
2023-01-07T00:55:54.941Z,101405.34
2023-01-07T00:58:26.769Z,101395.06
2023-01-07T01:01:00.340Z,101395.06
2023-01-07T01:03:31.931Z,101386.41
2023-01-07T01:06:04.745Z,101390.72
2023-01-07T01:08:34.662Z,101384.47
2023-01-07T01:11:09.948Z,101383.69
2023-01-07T01:13:40.491Z,101379.84
2023-01-07T01:16:12.441Z,101375.53
2023-01-07T01:18:42.682Z,101384.78
2023-01-07T01:21:14.239Z,101384.00
2023-01-07T01:23:44.787Z,101384.19
2023-01-07T01:26:19.207Z,101376.16
2023-01-07T01:28:48.993Z,101370.59
2023-01-07T01:31:18.764Z,101373.31
2023-01-07T01:33:48.671Z,101380.38
2023-01-07T01:36:18.441Z,101381.16
2023-01-07T01:38:48.281Z,101377.13
2023-01-07T01:41:20.644Z,101378.75
2023-01-07T01:43:50.886Z,101380.38
2023-01-07T01:46:25.026Z,101383.09
2023-01-07T01:48:59.346Z,101385.00
2023-01-07T01:51:34.730Z,101373.31
2023-01-07T01:54:07.165Z,101378.75
2023-01-07T01:56:43.947Z,101371.69
2023-01-07T01:59:18.289Z,101372.53
2023-01-07T02:01:48.781Z,101368.47
2023-01-07T02:04:22.932Z,101366.25
2023-01-07T02:06:57.739Z,101360.63
2023-01-07T02:09:27.879Z,101366.56
2023-01-07T02:12:07.785Z,101363.66
2023-01-07T02:14:56.905Z,101365.88
2023-01-07T02:17:41.617Z,101371.81
2023-01-07T02:20:34.386Z,101360.44
2023-01-07T02:23:30.973Z,101355.81
2023-01-07T02:26:27.570Z,101351.78
2023-01-07T02:29:40.073Z,101359.63
2023-01-07T02:32:33.657Z,101350.97
2023-01-07T02:35:12.771Z,101347.94
2023-01-07T02:37:52.248Z,101349.75
2023-01-07T02:40:27.601Z,101351.34
2023-01-07T02:43:10.320Z,101351.03
2023-01-07T02:45:48.993Z,101355.09
2023-01-07T02:48:24.019Z,101358.59
2023-01-07T02:50:53.788Z,101353.16
2023-01-07T02:53:24.071Z,101345.00
2023-01-07T02:56:09.083Z,101346.28
2023-01-07T02:58:59.120Z,101341.66
2023-01-07T03:02:14.187Z,101327.56
2023-01-07T03:05:02.413Z,101329.16
2023-01-07T03:07:44.072Z,101329.38
2023-01-07T03:10:23.102Z,101324.72
2023-01-07T03:12:58.307Z,101319.28
2023-01-07T03:15:33.913Z,101321.38
2023-01-07T03:18:06.616Z,101321.06
2023-01-07T03:20:42.007Z,101312.72
2023-01-07T03:23:14.952Z,101313.22
2023-01-07T03:25:47.934Z,101311.31
2023-01-07T03:28:24.409Z,101312.09
2023-01-07T03:30:56.544Z,101309.38
2023-01-07T03:33:31.555Z,101310.81
2023-01-07T03:36:07.920Z,101314.44
2023-01-07T03:38:43.204Z,101306.41
2023-01-07T03:41:33.353Z,101305.31
2023-01-07T03:44:00.512Z,101296.16
2023-01-07T03:46:30.688Z,101289.13
2023-01-07T03:49:00.456Z,101286.84
2023-01-07T03:51:32.778Z,101286.03
2023-01-07T03:54:02.618Z,101282.31
2023-01-07T03:56:32.407Z,101293.00
2023-01-07T03:59:02.963Z,101282.44
2023-01-07T04:01:32.920Z,101283.50
2023-01-07T04:04:03.547Z,101288.94
2023-01-07T04:06:36.083Z,101277.09
2023-01-07T04:09:06.009Z,101280.94
2023-01-07T04:11:35.841Z,101280.94
2023-01-07T04:14:05.753Z,101284.78
2023-01-07T04:16:35.933Z,101280.41
2023-01-07T04:19:05.786Z,101279.94
2023-01-07T04:21:38.252Z,101271.88
2023-01-07T04:24:08.829Z,101265.16
2023-01-07T04:26:38.996Z,101267.19
2023-01-07T04:29:09.002Z,101269.91
2023-01-07T04:31:39.030Z,101263.66
2023-01-07T04:34:08.893Z,101262.88
2023-01-07T04:36:41.471Z,101257.44
2023-01-07T04:39:12.654Z,101258.88
2023-01-07T04:41:42.862Z,101251.81
2023-01-07T04:44:12.777Z,101252.41
2023-01-07T04:46:42.557Z,101243.78
2023-01-07T04:49:12.523Z,101238.16
2023-01-07T04:51:45.170Z,101230.81
2023-01-07T04:54:14.973Z,101225.69
2023-01-07T04:56:45.863Z,101224.06
2023-01-07T04:59:15.658Z,101229.34
2023-01-07T05:01:45.568Z,101228.53
2023-01-07T05:04:15.474Z,101221.47
2023-01-07T05:06:47.855Z,101216.88
2023-01-07T05:09:17.715Z,101220.66
2023-01-07T05:11:47.441Z,101226.91
2023-01-07T05:14:17.262Z,101219.84
2023-01-07T05:16:47.061Z,101214.75
2023-01-07T05:19:17.234Z,101201.16
2023-01-07T05:21:49.634Z,101201.97
2023-01-07T05:24:19.463Z,101198.13
2023-01-07T05:26:49.202Z,101200.03
2023-01-07T05:29:18.975Z,101198.94
2023-01-07T05:31:48.800Z,101192.69
2023-01-07T05:34:18.740Z,101198.44
2023-01-07T05:36:51.180Z,101195.25
2023-01-07T05:39:21.179Z,101192.31
2023-01-07T05:41:51.065Z,101199.66
2023-01-07T05:44:20.832Z,101198.38
2023-01-07T05:46:50.570Z,101198.69
2023-01-07T05:49:20.543Z,101188.94
2023-01-07T05:51:53.068Z,101191.03
2023-01-07T05:54:22.807Z,101188.09
2023-01-07T05:56:52.641Z,101189.13
2023-01-07T05:59:22.491Z,101184.78
2023-01-07T06:01:52.256Z,101190.72
2023-01-07T06:04:22.275Z,101183.69
2023-01-07T06:06:54.622Z,101186.72
2023-01-07T06:09:24.795Z,101180.97
2023-01-07T06:11:54.573Z,101175.03
2023-01-07T06:14:24.395Z,101177.75
2023-01-07T06:16:54.270Z,101175.03
2023-01-07T06:19:24.396Z,101172.44
2023-01-07T06:21:56.817Z,101168.00
2023-01-07T06:24:26.581Z,101166.38
2023-01-07T06:26:56.365Z,101167.50
2023-01-07T06:29:26.067Z,101160.16
2023-01-07T06:31:55.903Z,101162.56
2023-01-07T06:34:25.864Z,101160.94
2023-01-07T06:36:58.580Z,101154.13
2023-01-07T06:39:28.397Z,101155.03
2023-01-07T06:41:58.510Z,101158.84
2023-01-07T06:44:28.314Z,101157.75
2023-01-07T06:46:58.146Z,101155.66
2023-01-07T06:49:27.947Z,101158.97
2023-01-07T06:52:00.311Z,101148.72
2023-01-07T06:54:30.146Z,101153.16
2023-01-07T06:56:59.902Z,101149.16
2023-01-07T06:59:29.686Z,101142.91
2023-01-07T07:02:02.399Z,101152.19
2023-01-07T07:04:32.180Z,101144.53
2023-01-07T07:07:04.558Z,101139.09
2023-01-07T07:09:34.589Z,101133.19
2023-01-07T07:12:04.384Z,101137.50
2023-01-07T07:14:34.343Z,101133.50
2023-01-07T07:17:04.172Z,101127.22
2023-01-07T07:19:34.136Z,101127.22
2023-01-07T07:22:06.724Z,101133.19
2023-01-07T07:24:36.511Z,101126.16
2023-01-07T07:27:06.681Z,101127.44
2023-01-07T07:29:36.482Z,101126.63
2023-01-07T07:32:06.579Z,101129.03
2023-01-07T07:34:36.371Z,101121.19
2023-01-07T07:37:08.792Z,101118.97
2023-01-07T07:39:38.638Z,101118.47
2023-01-07T07:42:09.139Z,101115.75
2023-01-07T07:44:39.259Z,101118.47
2023-01-07T07:47:09.061Z,101104.91
2023-01-07T07:49:38.822Z,101104.91
2023-01-07T07:52:11.337Z,101097.25
2023-01-07T07:54:41.101Z,101094.53
2023-01-07T07:57:11.003Z,101090.22
2023-01-07T07:59:40.713Z,101098.84
2023-01-07T08:02:12.223Z,101092.63
2023-01-07T08:04:42.364Z,101090.41
2023-01-07T08:07:15.687Z,101082.56
2023-01-07T08:10:03.125Z,101083.34
2023-01-07T08:12:32.878Z,101075.53
2023-01-07T08:15:02.628Z,101079.56
2023-01-07T08:17:32.402Z,101078.72
2023-01-07T08:20:02.148Z,101072.69
2023-01-07T08:22:34.671Z,101074.28
2023-01-07T08:25:05.211Z,101069.66
2023-01-07T08:27:35.055Z,101063.63
2023-01-07T08:30:04.964Z,101071.47
2023-01-07T08:32:34.874Z,101074.19
2023-01-07T08:35:04.583Z,101067.63
2023-01-07T08:37:36.936Z,101073.84
2023-01-07T08:40:07.860Z,101078.16
2023-01-07T08:42:37.643Z,101072.25
2023-01-07T08:45:09.517Z,101076.38
2023-01-07T08:47:39.224Z,101062.50
2023-01-07T08:50:09.973Z,101060.59
2023-01-07T08:52:42.577Z,101059.16
2023-01-07T08:55:15.589Z,101058.84
2023-01-07T08:57:45.318Z,101060.16
2023-01-07T09:00:16.978Z,101057.28
2023-01-07T09:02:47.078Z,101055.56
2023-01-07T09:05:17.044Z,101057.66
2023-01-07T09:07:49.544Z,101053.00
2023-01-07T09:10:19.549Z,101054.34
2023-01-07T09:12:49.510Z,101055.63
2023-01-07T09:15:19.834Z,101050.19
2023-01-07T09:17:49.675Z,101043.34
2023-01-07T09:20:20.151Z,101039.66
2023-01-07T09:22:53.734Z,101038.25
2023-01-07T09:25:23.971Z,101031.38
2023-01-07T09:27:55.306Z,101030.75
2023-01-07T09:30:25.103Z,101041.00
2023-01-07T09:32:54.942Z,101032.53
2023-01-07T09:35:25.279Z,101034.94
2023-01-07T09:37:58.007Z,101024.84
2023-01-07T09:40:31.779Z,101023.44
2023-01-07T09:43:09.018Z,101023.44
2023-01-07T09:45:43.738Z,101009.22
2023-01-07T09:48:23.707Z,101012.59
2023-01-07T09:50:58.782Z,101004.59
2023-01-07T09:53:37.119Z,101006.97
2023-01-07T09:56:12.851Z,101018.97
2023-01-07T09:58:45.002Z,101006.81
2023-01-07T10:01:26.444Z,101014.50
2023-01-07T10:04:09.908Z,101015.44
2023-01-07T10:06:48.792Z,101015.44
2023-01-07T10:09:36.095Z,101011.91
2023-01-07T10:12:15.605Z,101005.50
2023-01-07T10:15:09.095Z,100999.00
2023-01-07T10:18:01.138Z,100991.19
2023-01-07T10:20:40.714Z,100989.41
2023-01-07T10:23:14.716Z,100992.31
2023-01-07T10:25:51.192Z,100978.44
2023-01-07T10:28:25.218Z,100980.03
2023-01-07T10:30:55.069Z,100966.91
2023-01-07T10:33:29.521Z,100969.50
2023-01-07T10:36:09.375Z,100973.66
2023-01-07T10:38:43.514Z,100966.78
2023-01-07T10:41:23.301Z,100955.28
2023-01-07T10:44:16.045Z,100939.75
2023-01-07T10:47:00.207Z,100929.81
2023-01-07T10:49:53.265Z,100921.19
2023-01-07T10:52:46.083Z,100919.28
2023-01-07T10:55:33.034Z,100914.47
2023-01-07T10:58:06.302Z,100900.41
2023-01-07T11:00:36.256Z,100901.34
2023-01-07T11:03:06.056Z,100896.09
2023-01-07T11:05:40.082Z,100886.00
2023-01-07T11:08:15.358Z,100886.00
2023-01-07T11:10:45.753Z,100887.59
2023-01-07T11:13:21.977Z,100877.34
2023-01-07T11:15:56.358Z,100870.03
2023-01-07T11:18:32.676Z,100873.53
2023-01-07T11:21:03.533Z,100857.84
2023-01-07T11:23:36.839Z,100850.16
2023-01-07T11:26:14.135Z,100847.94
2023-01-07T11:29:02.946Z,100837.50
2023-01-07T11:31:49.479Z,100825.97
2023-01-07T11:34:25.393Z,100818.44
2023-01-07T11:36:55.853Z,100829.97
2023-01-07T11:39:28.159Z,100812.34
2023-01-07T11:42:00.415Z,100811.84
2023-01-07T11:44:37.048Z,100799.50
2023-01-07T11:47:06.886Z,100793.09
2023-01-07T11:49:46.697Z,100792.59
2023-01-07T11:52:21.519Z,100779.78
2023-01-07T11:54:53.715Z,100774.97
2023-01-07T11:57:26.565Z,100767.72
2023-01-07T12:00:16.552Z,100775.91
2023-01-07T12:02:46.680Z,100768.81
2023-01-07T12:05:23.944Z,100763.88
2023-01-07T12:07:54.852Z,100764.00
2023-01-07T12:10:36.921Z,100753.28
2023-01-07T12:13:09.082Z,100752.63
2023-01-07T12:15:53.968Z,100735.16
2023-01-07T12:18:55.752Z,100741.06
2023-01-07T12:21:37.600Z,100728.59
2023-01-07T12:24:41.331Z,100729.25
2023-01-07T12:27:23.806Z,100725.53
2023-01-07T12:30:06.087Z,100718.50
2023-01-07T12:32:50.469Z,100729.72
2023-01-07T12:35:26.465Z,100711.28
2023-01-07T12:38:04.119Z,100713.66
2023-01-07T12:40:39.259Z,100696.38
2023-01-07T12:43:19.560Z,100686.16
2023-01-07T12:45:57.986Z,100689.69
2023-01-07T12:48:39.876Z,100690.19
2023-01-07T12:51:21.231Z,100691.00
2023-01-07T12:53:56.043Z,100684.75
2023-01-07T12:56:30.373Z,100675.97
2023-01-07T12:59:04.935Z,100661.09
2023-01-07T13:01:39.919Z,100664.94
2023-01-07T13:04:36.830Z,100660.16
2023-01-07T13:07:17.285Z,100655.50
2023-01-07T13:09:55.253Z,100659.69
2023-01-07T13:12:45.617Z,100657.91
2023-01-07T13:15:26.697Z,100647.69
2023-01-07T13:17:58.401Z,100654.88
2023-01-07T13:21:07.528Z,100653.00
2023-01-07T13:23:59.113Z,100638.25
2023-01-07T13:26:37.612Z,100640.31
2023-01-07T13:29:29.057Z,100634.75
2023-01-07T13:32:24.095Z,100635.88
2023-01-07T13:35:08.285Z,100624.03
2023-01-07T13:38:01.963Z,100623.75
2023-01-07T13:40:50.412Z,100616.72
2023-01-07T13:43:43.385Z,100621.22
2023-01-07T13:46:17.295Z,100617.19
2023-01-07T13:48:52.004Z,100612.88
2023-01-07T13:51:30.358Z,100612.06
2023-01-07T13:54:01.014Z,100615.94
2023-01-07T13:56:39.246Z,100608.09
2023-01-07T13:59:34.259Z,100605.69
2023-01-07T14:02:24.981Z,100599.44
2023-01-07T14:05:06.127Z,100593.38
2023-01-07T14:07:47.527Z,100589.34
2023-01-07T14:10:27.763Z,100584.06
2023-01-07T14:13:22.659Z,100583.00
2023-01-07T14:16:13.259Z,100576.88
2023-01-07T14:18:58.235Z,100583.59
2023-01-07T14:22:02.137Z,100573.81
2023-01-07T14:25:06.400Z,100570.00
2023-01-07T14:27:50.177Z,100558.91
2023-01-07T14:30:26.503Z,100550.09
2023-01-07T14:33:02.455Z,100547.81
2023-01-07T14:35:37.019Z,100553.41
2023-01-07T14:38:36.826Z,100546.88
2023-01-07T14:41:09.787Z,100547.38
2023-01-07T14:44:13.936Z,100543.06
2023-01-07T14:46:53.991Z,100547.03
2023-01-07T14:49:57.743Z,100540.19
2023-01-07T14:52:51.565Z,100533.63
2023-01-07T14:55:53.029Z,100517.63
2023-01-07T14:58:35.175Z,100523.53
2023-01-07T15:01:40.820Z,100516.38
2023-01-07T15:04:45.937Z,100529.50
2023-01-07T15:07:20.659Z,100527.09
2023-01-07T15:10:09.574Z,100517.81
2023-01-07T15:12:54.458Z,100529.81
2023-01-07T15:15:40.297Z,100520.88
2023-01-07T15:18:10.981Z,100517.53
2023-01-07T15:21:03.128Z,100515.16
2023-01-07T15:23:41.535Z,100521.72
2023-01-07T15:26:16.928Z,100516.47
2023-01-07T15:28:54.526Z,100521.78
2023-01-07T15:31:28.977Z,100522.44
2023-01-07T15:34:10.299Z,100521.53
2023-01-07T15:36:47.884Z,100505.72
2023-01-07T15:39:25.186Z,100502.22
2023-01-07T15:41:56.627Z,100498.53
2023-01-07T15:44:30.809Z,100483.53
2023-01-07T15:47:00.676Z,100485.81
2023-01-07T15:49:31.382Z,100477.19
2023-01-07T15:52:10.983Z,100470.69
2023-01-07T15:54:41.136Z,100461.22
2023-01-07T15:57:14.150Z,100471.31
2023-01-07T15:59:48.408Z,100459.78
2023-01-07T16:02:23.941Z,100453.91
2023-01-07T16:04:55.834Z,100456.16
2023-01-07T16:07:31.151Z,100468.50
2023-01-07T16:10:02.177Z,100457.28
2023-01-07T16:12:39.087Z,100461.31
2023-01-07T16:15:27.531Z,100463.06
2023-01-07T16:17:59.145Z,100456.50
2023-01-07T16:20:32.886Z,100451.75
2023-01-07T16:23:27.787Z,100463.00
2023-01-07T16:26:01.840Z,100459.63
2023-01-07T16:28:36.062Z,100449.06
2023-01-07T16:31:08.615Z,100452.13
2023-01-07T16:33:39.381Z,100442.69
2023-01-07T16:36:14.380Z,100436.47
2023-01-07T16:38:47.839Z,100434.13
2023-01-07T16:41:23.466Z,100440.81
2023-01-07T16:43:57.776Z,100436.34
2023-01-07T16:46:29.831Z,100427.41
2023-01-07T16:49:23.470Z,100427.28
2023-01-07T16:51:54.728Z,100437.47
2023-01-07T16:54:40.219Z,100433.34
2023-01-07T16:57:29.798Z,100432.56
2023-01-07T17:00:02.125Z,100433.84
2023-01-07T17:02:36.073Z,100431.75
2023-01-07T17:05:19.795Z,100427.78
2023-01-07T17:07:52.427Z,100422.03
2023-01-07T17:10:30.831Z,100422.84
2023-01-07T17:13:03.218Z,100429.38
2023-01-07T17:15:41.880Z,100418.38
2023-01-07T17:18:31.134Z,100424.44
2023-01-07T17:21:02.672Z,100425.41
2023-01-07T17:23:45.622Z,100429.09
2023-01-07T17:26:25.590Z,100435.16
2023-01-07T17:28:57.279Z,100432.13
2023-01-07T17:31:27.360Z,100437.56
2023-01-07T17:33:58.489Z,100427.50
2023-01-07T17:36:29.744Z,100420.59
2023-01-07T17:38:59.618Z,100424.59
2023-01-07T17:41:44.436Z,100418.84
2023-01-07T17:44:15.249Z,100416.13
2023-01-07T17:46:45.372Z,100413.53
2023-01-07T17:49:15.219Z,100412.09
2023-01-07T17:51:48.821Z,100416.41
2023-01-07T17:54:23.195Z,100407.13
2023-01-07T17:56:55.731Z,100411.91
2023-01-07T17:59:26.541Z,100402.78
2023-01-07T18:01:59.198Z,100410.59
2023-01-07T18:04:29.105Z,100401.00
2023-01-07T18:06:59.001Z,100402.28
2023-01-07T18:09:28.781Z,100393.78
2023-01-07T18:12:13.509Z,100395.38
2023-01-07T18:14:43.963Z,100386.91
2023-01-07T18:17:13.841Z,100383.72
2023-01-07T18:19:43.609Z,100378.28
2023-01-07T18:22:13.424Z,100373.78
2023-01-07T18:24:43.180Z,100363.56
2023-01-07T18:27:17.895Z,100366.09
2023-01-07T18:29:47.723Z,100357.50
2023-01-07T18:32:17.525Z,100355.22
2023-01-07T18:34:47.404Z,100339.59
2023-01-07T18:37:18.093Z,100335.59
2023-01-07T18:39:47.931Z,100333.91
2023-01-07T18:42:21.455Z,100342.38
2023-01-07T18:44:51.268Z,100328.31
2023-01-07T18:47:21.045Z,100326.72
2023-01-07T18:49:51.067Z,100314.13
2023-01-07T18:52:21.125Z,100326.44
2023-01-07T18:54:51.093Z,100343.53
2023-01-07T18:57:23.532Z,100322.47
2023-01-07T18:59:53.547Z,100342.09
2023-01-07T19:02:24.473Z,100344.31
2023-01-07T19:04:54.321Z,100348.69
2023-01-07T19:07:24.191Z,100329.50
2023-01-07T19:09:56.070Z,100316.25
2023-01-07T19:12:29.132Z,100313.84
2023-01-07T19:14:59.211Z,100308.41
2023-01-07T19:17:29.118Z,100303.97
2023-01-07T19:19:58.934Z,100304.78
2023-01-07T19:22:28.771Z,100314.50
2023-01-07T19:24:58.960Z,100311.34
2023-01-07T19:27:31.733Z,100305.41
2023-01-07T19:30:01.528Z,100311.66
2023-01-07T19:32:32.578Z,100295.84
2023-01-07T19:35:02.481Z,100291.19
2023-01-07T19:37:32.272Z,100297.75
2023-01-07T19:40:02.131Z,100302.84
2023-01-07T19:42:34.782Z,100320.41
2023-01-07T19:45:04.571Z,100311.47
2023-01-07T19:47:35.492Z,100317.03
2023-01-07T19:50:05.353Z,100317.03
2023-01-07T19:52:35.110Z,100302.34
2023-01-07T19:55:07.482Z,100312.41
2023-01-07T19:57:39.908Z,100301.19
2023-01-07T20:00:11.289Z,100306.63
2023-01-07T20:02:41.113Z,100295.31
2023-01-07T20:05:11.741Z,100301.66
2023-01-07T20:07:41.540Z,100299.44
2023-01-07T20:10:11.901Z,100299.44
2023-01-07T20:12:44.678Z,100301.81
2023-01-07T20:15:14.927Z,100315.84
2023-01-07T20:17:44.817Z,100308.16
2023-01-07T20:20:14.748Z,100309.63
2023-01-07T20:22:46.718Z,100312.81
2023-01-07T20:25:16.533Z,100308.97
2023-01-07T20:27:48.924Z,100314.38
2023-01-07T20:30:18.940Z,100297.19
2023-01-07T20:32:48.879Z,100302.59
2023-01-07T20:35:18.888Z,100319.38
2023-01-07T20:37:48.741Z,100305.31
2023-01-07T20:40:18.645Z,100295.09
2023-01-07T20:42:51.111Z,100302.16
2023-01-07T20:45:21.114Z,100302.16
2023-01-07T20:47:50.899Z,100304.66
2023-01-07T20:50:21.258Z,100298.75
2023-01-07T20:52:51.121Z,100308.50
2023-01-07T20:55:22.098Z,100300.81
2023-01-07T20:57:54.496Z,100302.41
2023-01-07T21:00:24.542Z,100302.88
2023-01-07T21:02:54.472Z,100303.53
2023-01-07T21:05:24.717Z,100298.09
2023-01-07T21:07:54.552Z,100287.22
2023-01-07T21:10:24.350Z,100300.00
2023-01-07T21:12:56.746Z,100286.75
2023-01-07T21:15:26.512Z,100289.94
2023-01-07T21:17:56.767Z,100272.53
2023-01-07T21:20:26.786Z,100277.97
2023-01-07T21:22:56.561Z,100276.34
2023-01-07T21:25:26.371Z,100277.50
2023-01-07T21:27:59.115Z,100283.25
2023-01-07T21:30:28.955Z,100287.91
2023-01-07T21:32:58.883Z,100286.44
2023-01-07T21:35:29.972Z,100277.50
2023-01-07T21:37:59.697Z,100273.72
2023-01-07T21:40:29.505Z,100274.50
2023-01-07T21:43:02.452Z,100285.59
2023-01-07T21:45:32.620Z,100283.97
2023-01-07T21:48:02.386Z,100275.81
2023-01-07T21:50:32.214Z,100275.81
2023-01-07T21:53:01.951Z,100273.09
2023-01-07T21:55:31.803Z,100273.44
2023-01-07T21:58:04.218Z,100282.72
2023-01-07T22:00:34.006Z,100284.50
2023-01-07T22:03:03.825Z,100278.41
2023-01-07T22:05:33.939Z,100281.13
2023-01-07T22:08:03.685Z,100278.47
2023-01-07T22:10:33.786Z,100265.34
2023-01-07T22:13:06.236Z,100259.91
2023-01-07T22:15:36.026Z,100268.53
2023-01-07T22:18:05.732Z,100258.34
2023-01-07T22:20:35.473Z,100257.19
2023-01-07T22:23:05.352Z,100261.50
2023-01-07T22:25:35.417Z,100261.50
2023-01-07T22:28:08.425Z,100266.94
2023-01-07T22:30:42.395Z,100275.09
2023-01-07T22:33:12.145Z,100287.75
2023-01-07T22:35:41.963Z,100283.22
2023-01-07T22:38:12.620Z,100274.75
2023-01-07T22:40:42.997Z,100267.72
2023-01-07T22:43:19.995Z,100268.53
2023-01-07T22:45:55.284Z,100267.09
2023-01-07T22:48:28.404Z,100264.84
2023-01-07T22:51:08.342Z,100257.13
2023-01-07T22:53:38.704Z,100260.19
2023-01-07T22:56:10.049Z,100268.78
2023-01-07T22:58:42.603Z,100261.78
2023-01-07T23:01:16.463Z,100263.38
2023-01-07T23:03:47.474Z,100248.09
2023-01-07T23:06:18.935Z,100254.63
2023-01-07T23:08:48.719Z,100252.22
2023-01-07T23:11:38.820Z,100234.34
2023-01-07T23:14:11.348Z,100225.75
2023-01-07T23:16:41.277Z,100231.19
2023-01-07T23:19:11.182Z,100228.91
2023-01-07T23:21:43.433Z,100230.03
2023-01-07T23:24:14.488Z,100218.41
2023-01-07T23:26:45.127Z,100229.78
2023-01-07T23:29:17.513Z,100227.66
2023-01-07T23:31:47.618Z,100225.75
2023-01-07T23:34:18.627Z,100239.00
2023-01-07T23:36:48.825Z,100221.44
2023-01-07T23:39:19.126Z,100228.28
2023-01-07T23:41:48.975Z,100236.09
2023-01-07T23:44:21.400Z,100238.47
2023-01-07T23:46:51.173Z,100237.16
2023-01-07T23:49:21.003Z,100248.91
2023-01-07T23:51:50.862Z,100235.81
2023-01-07T23:54:21.051Z,100231.66
2023-01-07T23:56:51.477Z,100224.44
2023-01-07T23:59:23.983Z,100215.00
